createdAt,value
2023-01-29T00:03:32.244Z,-0.16
2023-01-29T00:06:59.782Z,-0.18
2023-01-29T00:10:26.832Z,-0.20
2023-01-29T00:13:54.387Z,-0.22
2023-01-29T00:17:22.088Z,-0.24
2023-01-29T00:20:51.472Z,-0.28
2023-01-29T00:24:18.474Z,-0.29
2023-01-29T00:27:46.153Z,-0.30
2023-01-29T00:31:14.865Z,-0.30
2023-01-29T00:34:43.600Z,-0.30
2023-01-29T00:38:12.441Z,-0.29
2023-01-29T00:41:58.304Z,-0.31
2023-01-29T00:45:25.575Z,-0.27
2023-01-29T00:48:52.037Z,-0.23
2023-01-29T00:52:28.106Z,-0.19
2023-01-29T00:55:54.721Z,-0.14
2023-01-29T00:59:21.731Z,-0.09
2023-01-29T01:03:07.192Z,-0.02
2023-01-29T01:06:34.393Z,0.03
2023-01-29T01:10:19.609Z,0.06
2023-01-29T01:13:51.543Z,0.05
2023-01-29T01:17:20.927Z,0.01
2023-01-29T01:20:52.164Z,-0.04
2023-01-29T01:24:20.735Z,-0.08
2023-01-29T01:27:47.519Z,-0.12
2023-01-29T01:31:16.044Z,-0.17
2023-01-29T01:34:45.590Z,-0.21
2023-01-29T01:38:13.529Z,-0.25
2023-01-29T01:41:40.002Z,-0.29
2023-01-29T01:45:18.491Z,-0.29
2023-01-29T01:48:48.376Z,-0.30
2023-01-29T01:52:17.174Z,-0.31
2023-01-29T01:55:52.106Z,-0.33
2023-01-29T01:59:20.680Z,-0.33
2023-01-29T02:03:07.501Z,-0.32
2023-01-29T02:06:52.605Z,-0.30
2023-01-29T02:10:20.840Z,-0.27
2023-01-29T02:13:53.913Z,-0.21
2023-01-29T02:17:25.259Z,-0.15
2023-01-29T02:21:07.904Z,-0.09
2023-01-29T02:25:09.655Z,-0.09
2023-01-29T02:28:44.759Z,-0.09
2023-01-29T02:32:22.466Z,-0.09
2023-01-29T02:35:58.226Z,-0.14
2023-01-29T02:39:42.018Z,-0.15
2023-01-29T02:43:25.307Z,-0.16
2023-01-29T02:46:59.935Z,-0.16
2023-01-29T02:50:33.389Z,-0.18
2023-01-29T02:54:05.834Z,-0.19
2023-01-29T02:57:36.726Z,-0.17
2023-01-29T03:01:08.178Z,-0.20
2023-01-29T03:04:42.842Z,-0.23
2023-01-29T03:08:13.609Z,-0.24
2023-01-29T03:11:44.117Z,-0.27
2023-01-29T03:15:17.429Z,-0.29
2023-01-29T03:18:58.458Z,-0.25
2023-01-29T03:22:26.799Z,-0.24
2023-01-29T03:26:13.724Z,-0.21
2023-01-29T03:30:01.093Z,-0.21
2023-01-29T03:33:45.822Z,-0.22
2023-01-29T03:37:19.455Z,-0.20
2023-01-29T03:40:54.786Z,-0.19
2023-01-29T03:44:32.258Z,-0.20
2023-01-29T03:48:08.797Z,-0.24
2023-01-29T03:51:40.601Z,-0.27
2023-01-29T03:55:16.952Z,-0.26
2023-01-29T03:58:49.843Z,-0.26
2023-01-29T04:02:28.270Z,-0.28
2023-01-29T04:06:10.143Z,-0.28
2023-01-29T04:09:48.239Z,-0.32
2023-01-29T04:13:19.287Z,-0.36
2023-01-29T04:16:50.337Z,-0.37
2023-01-29T04:20:40.189Z,-0.38
2023-01-29T04:24:08.583Z,-0.38
2023-01-29T04:27:45.467Z,-0.35
2023-01-29T04:31:15.772Z,-0.28
2023-01-29T04:34:57.496Z,-0.25
2023-01-29T04:38:36.726Z,-0.22
2023-01-29T04:42:14.432Z,-0.19
2023-01-29T04:45:49.463Z,-0.19
2023-01-29T04:49:29.531Z,-0.18
2023-01-29T04:53:02.031Z,-0.19
2023-01-29T04:56:36.831Z,-0.22
2023-01-29T05:00:09.148Z,-0.22
2023-01-29T05:03:37.863Z,-0.24
2023-01-29T05:07:09.145Z,-0.28
2023-01-29T05:10:37.542Z,-0.27
2023-01-29T05:14:08.446Z,-0.24
2023-01-29T05:17:35.388Z,-0.26
2023-01-29T05:21:06.817Z,-0.26
2023-01-29T05:24:33.086Z,-0.26
2023-01-29T05:28:05.614Z,-0.28
2023-01-29T05:31:32.620Z,-0.29
2023-01-29T05:34:59.319Z,-0.25
2023-01-29T05:38:26.431Z,-0.21
2023-01-29T05:41:53.248Z,-0.15
2023-01-29T05:45:20.553Z,-0.10
2023-01-29T05:48:47.298Z,-0.08
2023-01-29T05:52:13.782Z,-0.04
2023-01-29T05:55:40.692Z,-0.03
2023-01-29T05:59:08.149Z,-0.03
2023-01-29T06:02:35.075Z,0.02
2023-01-29T06:06:02.863Z,-0.04
2023-01-29T06:09:29.214Z,-0.08
2023-01-29T06:12:56.036Z,-0.11
2023-01-29T06:16:23.037Z,-0.13
2023-01-29T06:19:49.642Z,-0.19
2023-01-29T06:23:16.069Z,-0.22
2023-01-29T06:26:42.793Z,-0.24
2023-01-29T06:30:13.735Z,-0.24
2023-01-29T06:33:40.231Z,-0.25
2023-01-29T06:37:08.224Z,-0.23
2023-01-29T06:40:35.431Z,-0.18
2023-01-29T06:44:02.675Z,-0.16
2023-01-29T06:47:30.311Z,-0.15
2023-01-29T06:50:57.253Z,-0.12
2023-01-29T06:54:24.368Z,-0.09
2023-01-29T06:57:51.084Z,-0.06
2023-01-29T07:01:34.700Z,0.00
2023-01-29T07:05:04.699Z,0.01
2023-01-29T07:08:31.542Z,-0.02
2023-01-29T07:11:58.161Z,-0.01
2023-01-29T07:15:25.777Z,0.02
2023-01-29T07:18:53.346Z,0.01
2023-01-29T07:22:23.444Z,-0.01
2023-01-29T07:25:52.036Z,-0.06
2023-01-29T07:29:18.824Z,-0.07
2023-01-29T07:32:45.466Z,-0.05
2023-01-29T07:36:14.497Z,-0.08
2023-01-29T07:39:40.710Z,-0.08
2023-01-29T07:43:08.640Z,-0.04
2023-01-29T07:46:36.032Z,0.00
2023-01-29T07:50:02.558Z,0.04
2023-01-29T07:53:30.887Z,0.12
2023-01-29T07:56:57.470Z,0.14
2023-01-29T08:00:25.820Z,0.15
2023-01-29T08:03:52.652Z,0.21
2023-01-29T08:07:19.127Z,0.28
2023-01-29T08:10:45.672Z,0.34
2023-01-29T08:14:12.555Z,0.38
2023-01-29T08:17:52.618Z,0.38
2023-01-29T08:21:23.923Z,0.35
2023-01-29T08:24:54.377Z,0.33
2023-01-29T08:28:26.937Z,0.34
2023-01-29T08:31:53.562Z,0.33
2023-01-29T08:35:21.041Z,0.35
2023-01-29T08:38:48.107Z,0.36
2023-01-29T08:42:14.835Z,0.34
2023-01-29T08:45:43.750Z,0.37
2023-01-29T08:49:11.811Z,0.41
2023-01-29T08:52:38.868Z,0.46
2023-01-29T08:56:05.414Z,0.50
2023-01-29T08:59:32.155Z,0.56
2023-01-29T09:03:01.283Z,0.57
2023-01-29T09:06:28.489Z,0.61
2023-01-29T09:09:55.981Z,0.68
2023-01-29T09:13:22.772Z,0.71
2023-01-29T09:16:49.944Z,0.70
2023-01-29T09:20:17.456Z,0.72
2023-01-29T09:23:43.896Z,0.70
2023-01-29T09:27:11.251Z,0.71
2023-01-29T09:30:39.916Z,0.71
2023-01-29T09:34:07.423Z,0.73
2023-01-29T09:37:36.669Z,0.77
2023-01-29T09:41:17.652Z,0.77
2023-01-29T09:45:03.196Z,0.80
2023-01-29T09:48:34.255Z,0.82
2023-01-29T09:52:06.613Z,0.85
2023-01-29T09:55:36.763Z,0.90
2023-01-29T09:59:03.973Z,0.96
2023-01-29T10:02:50.901Z,1.05
2023-01-29T10:06:31.923Z,1.15
2023-01-29T10:10:15.081Z,1.22
2023-01-29T10:13:50.191Z,1.24
2023-01-29T10:17:32.854Z,1.26
2023-01-29T10:21:10.698Z,1.29
2023-01-29T10:24:43.194Z,1.27
2023-01-29T10:28:19.812Z,1.23
2023-01-29T10:31:52.471Z,1.21
2023-01-29T10:35:26.361Z,1.21
2023-01-29T10:38:54.029Z,1.21
2023-01-29T10:42:31.215Z,1.20
2023-01-29T10:46:11.128Z,1.24
2023-01-29T10:50:02.937Z,1.27
2023-01-29T10:53:45.458Z,1.33
2023-01-29T10:57:23.079Z,1.37
2023-01-29T11:00:51.548Z,1.40
2023-01-29T11:04:19.129Z,1.45
2023-01-29T11:07:45.912Z,1.48
2023-01-29T11:11:17.428Z,1.51
2023-01-29T11:14:52.008Z,1.50
2023-01-29T11:18:18.720Z,1.50
2023-01-29T11:21:58.948Z,1.48
2023-01-29T11:25:29.273Z,1.44
2023-01-29T11:28:56.122Z,1.45
2023-01-29T11:32:35.120Z,1.41
2023-01-29T11:36:21.353Z,1.41
2023-01-29T11:39:48.895Z,1.41
2023-01-29T11:43:32.168Z,1.42
2023-01-29T11:47:09.218Z,1.43
2023-01-29T11:50:37.033Z,1.49
2023-01-29T11:54:05.699Z,1.54
2023-01-29T11:57:37.008Z,1.58
2023-01-29T12:01:05.158Z,1.65
2023-01-29T12:04:33.376Z,1.72
2023-01-29T12:08:02.632Z,1.76
2023-01-29T12:11:32.746Z,1.72
2023-01-29T12:15:21.033Z,1.68
2023-01-29T12:18:52.373Z,1.66
2023-01-29T12:22:25.475Z,1.63
2023-01-29T12:26:00.314Z,1.59
2023-01-29T12:29:39.134Z,1.55
2023-01-29T12:33:14.662Z,1.54
2023-01-29T12:36:53.966Z,1.53
2023-01-29T12:40:23.329Z,1.54
2023-01-29T12:43:54.980Z,1.59
2023-01-29T12:47:27.528Z,1.64
2023-01-29T12:50:58.210Z,1.67
2023-01-29T12:54:33.667Z,1.75
2023-01-29T12:58:01.911Z,1.77
2023-01-29T13:01:34.425Z,1.76
2023-01-29T13:05:05.941Z,1.77
2023-01-29T13:08:39.768Z,1.75
2023-01-29T13:12:13.787Z,1.75
2023-01-29T13:15:44.336Z,1.72
2023-01-29T13:19:27.706Z,1.67
2023-01-29T13:23:00.770Z,1.63
2023-01-29T13:26:28.450Z,1.60
2023-01-29T13:29:56.216Z,1.63
2023-01-29T13:33:25.309Z,1.65
2023-01-29T13:36:55.883Z,1.64
2023-01-29T13:40:28.261Z,1.67
2023-01-29T13:43:55.687Z,1.71
2023-01-29T13:47:30.655Z,1.73
2023-01-29T13:51:01.181Z,1.76
2023-01-29T13:54:30.142Z,1.73
2023-01-29T13:57:58.967Z,1.72
2023-01-29T14:02:09.236Z,1.64
2023-01-29T14:06:00.771Z,1.59
2023-01-29T14:10:13.249Z,1.54
2023-01-29T14:13:42.278Z,1.54
2023-01-29T14:17:10.283Z,1.50
2023-01-29T14:20:50.888Z,1.47
2023-01-29T14:24:23.427Z,1.47
2023-01-29T14:27:52.629Z,1.47
2023-01-29T14:31:40.487Z,1.46
2023-01-29T14:35:19.325Z,1.50
2023-01-29T14:38:53.447Z,1.49
2023-01-29T14:42:30.029Z,1.47
2023-01-29T14:45:56.865Z,1.48
2023-01-29T14:49:53.862Z,1.53
2023-01-29T14:53:31.271Z,1.56
2023-01-29T14:57:05.320Z,1.58
2023-01-29T15:00:36.627Z,1.59
2023-01-29T15:04:07.867Z,1.57
2023-01-29T15:07:40.152Z,1.58
2023-01-29T15:11:33.062Z,1.54
2023-01-29T15:15:15.535Z,1.52
2023-01-29T15:18:44.569Z,1.52
2023-01-29T15:22:16.303Z,1.50
2023-01-29T15:25:52.418Z,1.44
2023-01-29T15:29:27.443Z,1.41
2023-01-29T15:32:54.839Z,1.40
2023-01-29T15:36:25.208Z,1.36
2023-01-29T15:39:53.254Z,1.36
2023-01-29T15:43:25.762Z,1.38
2023-01-29T15:46:56.540Z,1.39
2023-01-29T15:50:25.395Z,1.41
2023-01-29T15:53:55.928Z,1.40
2023-01-29T15:57:28.051Z,1.39
2023-01-29T16:00:59.096Z,1.37
2023-01-29T16:04:32.361Z,1.37
2023-01-29T16:08:01.155Z,1.38
2023-01-29T16:11:28.097Z,1.43
2023-01-29T16:14:56.990Z,1.44
2023-01-29T16:18:29.957Z,1.42
2023-01-29T16:22:01.357Z,1.43
2023-01-29T16:25:33.590Z,1.39
2023-01-29T16:29:05.014Z,1.35
2023-01-29T16:32:33.170Z,1.31
2023-01-29T16:36:00.221Z,1.27
2023-01-29T16:39:30.573Z,1.22
2023-01-29T16:43:22.883Z,1.20
2023-01-29T16:46:52.527Z,1.19
2023-01-29T16:50:46.374Z,1.19
2023-01-29T16:54:25.904Z,1.21
2023-01-29T16:57:55.454Z,1.20
2023-01-29T17:01:23.877Z,1.22
2023-01-29T17:04:51.355Z,1.25
2023-01-29T17:08:24.690Z,1.29
2023-01-29T17:11:50.882Z,1.29
2023-01-29T17:15:35.686Z,1.28
2023-01-29T17:19:03.039Z,1.31
2023-01-29T17:22:30.192Z,1.37
2023-01-29T17:25:56.742Z,1.41
2023-01-29T17:29:30.147Z,1.44
2023-01-29T17:32:57.318Z,1.49
2023-01-29T17:36:23.863Z,1.53
2023-01-29T17:39:52.864Z,1.53
2023-01-29T17:43:19.185Z,1.48
2023-01-29T17:46:46.445Z,1.47
2023-01-29T17:50:24.092Z,1.43
2023-01-29T17:53:50.951Z,1.39
2023-01-29T17:57:19.332Z,1.33
2023-01-29T18:00:46.819Z,1.31
2023-01-29T18:04:14.455Z,1.31
2023-01-29T18:07:43.623Z,1.31
2023-01-29T18:11:14.200Z,1.32
2023-01-29T18:14:40.806Z,1.39
2023-01-29T18:18:08.206Z,1.47
2023-01-29T18:21:35.121Z,1.52
2023-01-29T18:25:02.576Z,1.54
2023-01-29T18:28:30.414Z,1.56
2023-01-29T18:31:57.485Z,1.59
2023-01-29T18:35:25.289Z,1.62
2023-01-29T18:38:52.514Z,1.62
2023-01-29T18:42:20.745Z,1.65
2023-01-29T18:45:49.085Z,1.62
2023-01-29T18:49:18.951Z,1.58
2023-01-29T18:52:46.500Z,1.56
2023-01-29T18:56:13.808Z,1.54
2023-01-29T18:59:41.636Z,1.50
2023-01-29T19:03:10.547Z,1.48
2023-01-29T19:06:38.092Z,1.45
2023-01-29T19:10:07.427Z,1.46
2023-01-29T19:13:34.877Z,1.51
2023-01-29T19:17:04.895Z,1.53
2023-01-29T19:20:35.931Z,1.54
2023-01-29T19:24:06.225Z,1.54
2023-01-29T19:27:33.538Z,1.54
2023-01-29T19:31:01.874Z,1.55
2023-01-29T19:34:29.169Z,1.59
2023-01-29T19:37:56.345Z,1.61
2023-01-29T19:41:23.147Z,1.61
2023-01-29T19:44:51.340Z,1.60
2023-01-29T19:48:20.795Z,1.59
2023-01-29T19:51:48.001Z,1.59
2023-01-29T19:55:18.790Z,1.62
2023-01-29T19:58:47.378Z,1.64
2023-01-29T20:02:16.804Z,1.63
2023-01-29T20:05:43.845Z,1.61
2023-01-29T20:09:14.050Z,1.61
2023-01-29T20:12:41.489Z,1.60
2023-01-29T20:16:10.649Z,1.59
2023-01-29T20:19:38.941Z,1.61
2023-01-29T20:23:05.896Z,1.61
2023-01-29T20:26:35.793Z,1.62
2023-01-29T20:30:10.510Z,1.57
2023-01-29T20:33:44.485Z,1.53
2023-01-29T20:37:14.605Z,1.48
2023-01-29T20:40:45.253Z,1.44
2023-01-29T20:44:23.092Z,1.43
2023-01-29T20:47:51.700Z,1.43
2023-01-29T20:51:21.215Z,1.41
2023-01-29T20:54:54.978Z,1.39
2023-01-29T20:58:31.778Z,1.39
2023-01-29T21:01:59.461Z,1.40
2023-01-29T21:05:27.721Z,1.45
2023-01-29T21:08:54.959Z,1.50
2023-01-29T21:12:22.694Z,1.49
2023-01-29T21:15:50.800Z,1.51
2023-01-29T21:19:21.613Z,1.53
2023-01-29T21:22:49.552Z,1.53
2023-01-29T21:26:16.069Z,1.48
2023-01-29T21:29:47.711Z,1.42
2023-01-29T21:33:14.861Z,1.38
2023-01-29T21:36:44.893Z,1.37
2023-01-29T21:40:16.738Z,1.37
2023-01-29T21:43:49.491Z,1.35
2023-01-29T21:47:17.897Z,1.35
2023-01-29T21:50:45.610Z,1.37
2023-01-29T21:54:14.070Z,1.35
2023-01-29T21:57:43.100Z,1.34
2023-01-29T22:01:38.165Z,1.36
2023-01-29T22:05:17.523Z,1.35
2023-01-29T22:08:52.498Z,1.36
2023-01-29T22:12:27.303Z,1.38
2023-01-29T22:15:59.780Z,1.40
2023-01-29T22:19:30.225Z,1.43
2023-01-29T22:23:01.174Z,1.43
2023-01-29T22:26:29.895Z,1.42
2023-01-29T22:29:58.498Z,1.39
2023-01-29T22:33:26.265Z,1.37
2023-01-29T22:36:57.250Z,1.35
2023-01-29T22:41:03.508Z,1.34
2023-01-29T22:44:38.193Z,1.30
2023-01-29T22:48:07.149Z,1.31
2023-01-29T22:51:35.875Z,1.32
2023-01-29T22:55:04.855Z,1.33
2023-01-29T22:58:33.095Z,1.36
2023-01-29T23:02:12.253Z,1.37
2023-01-29T23:05:40.711Z,1.35
2023-01-29T23:09:08.056Z,1.36
2023-01-29T23:12:35.163Z,1.37
2023-01-29T23:16:02.801Z,1.38
2023-01-29T23:19:32.789Z,1.39
2023-01-29T23:23:03.887Z,1.40
2023-01-29T23:26:49.180Z,1.40
2023-01-29T23:30:21.938Z,1.39
2023-01-29T23:33:48.697Z,1.37
2023-01-29T23:37:15.593Z,1.36
2023-01-29T23:40:42.451Z,1.34
2023-01-29T23:44:11.259Z,1.30
2023-01-29T23:47:39.101Z,1.26
2023-01-29T23:51:07.526Z,1.26
2023-01-29T23:54:37.227Z,1.26
2023-01-29T23:58:07.572Z,1.27
